Time;durP1;ratioP1;P1;durP2;ratioP2;P2;SDS_P1;SDS_P2;PMS_P1;PMS_P2;Temp;Humidity;BMP_temperature;BMP_pressure;BME280_temperature;BME280_humidity;BME280_pressure;Samples;Min_cycle;Max_cycle;Signal;HPM_P1;HPM_P2
2022/09/29 00:00:44;;;;;;;13.70;6.97;;;;;;;11.80;68.11;98495.59;4880921;29;20503;-89
2022/09/29 00:03:10;;;;;;;12.48;7.07;;;;;;;11.92;68.58;98517.53;4881272;29;20045;-89
2022/09/29 00:05:37;;;;;;;14.65;7.43;;;;;;;11.75;68.98;98499.34;4862110;29;20044;-90
2022/09/29 00:08:03;;;;;;;14.40;7.80;;;;;;;11.65;69.24;98477.88;4862245;29;20041;-89
2022/09/29 00:10:29;;;;;;;15.25;7.90;;;;;;;11.81;69.16;98511.69;4861923;29;20046;-89
2022/09/29 00:12:55;;;;;;;10.38;7.25;;;;;;;11.76;69.52;98512.72;4847408;29;20037;-91
2022/09/29 00:15:21;;;;;;;11.52;6.70;;;;;;;11.79;69.07;98515.88;4875102;29;20140;-89
2022/09/29 00:17:47;;;;;;;14.40;7.30;;;;;;;11.76;69.22;98520.94;4849676;29;20234;-91
2022/09/29 00:20:13;;;;;;;13.10;6.75;;;;;;;11.55;68.83;98502.97;4864970;29;20439;-91
2022/09/29 00:22:39;;;;;;;10.00;6.70;;;;;;;11.56;69.29;98499.91;4864792;29;20104;-90
2022/09/29 00:25:06;;;;;;;12.38;7.70;;;;;;;11.71;69.36;98529.34;4864699;29;20077;-90
2022/09/29 00:27:32;;;;;;;12.48;7.22;;;;;;;11.49;69.71;98492.25;4881819;29;20045;-89
2022/09/29 00:29:58;;;;;;;12.05;7.40;;;;;;;11.63;69.43;98505.63;4883024;29;20048;-91
2022/09/29 00:32:24;;;;;;;10.93;7.15;;;;;;;11.64;69.88;98514.63;4869190;29;20093;-89
2022/09/29 00:34:50;;;;;;;14.23;7.50;;;;;;;11.66;69.79;98535.06;4881061;29;20096;-91
2022/09/29 00:37:16;;;;;;;17.60;7.25;;;;;;;11.50;69.92;98523.94;4865539;29;20033;-89
2022/09/29 00:39:42;;;;;;;13.18;7.28;;;;;;;11.37;70.31;98505.91;4865691;29;20414;-88
2022/09/29 00:42:11;;;;;;;17.55;7.75;;;;;;;11.46;70.21;98514.03;4864990;29;20483;-91
2022/09/29 00:44:59;;;;;;;17.02;10.02;;;;;;;11.68;70.37;98540.19;4864865;29;20075;-91
2022/09/29 00:47:26;;;;;;;28.58;16.35;;;;;;;11.64;70.24;98536.53;4879695;29;20477;-89
2022/09/29 00:50:23;;;;;;;28.88;18.02;;;;;;;11.63;70.84;98554.09;4880635;29;20059;-89
2022/09/29 00:52:54;;;;;;;33.25;19.10;;;;;;;11.51;70.49;98531.00;4850696;29;20052;-88
2022/09/29 00:55:38;;;;;;;27.92;17.70;;;;;;;11.54;70.67;98532.28;4896107;29;20051;-88
2022/09/29 00:58:17;;;;;;;27.52;14.88;;;;;;;11.49;70.81;98536.03;4875314;29;20040;-89
2022/09/29 01:00:43;;;;;;;25.30;13.60;;;;;;;11.49;70.77;98529.78;4863030;29;20097;-90
2022/09/29 01:03:19;;;;;;;22.58;12.10;;;;;;;11.53;70.78;98534.22;4847553;29;20052;-89
2022/09/29 01:05:51;;;;;;;22.17;12.27;;;;;;;11.55;70.57;98544.81;4869164;29;20105;-91
2022/09/29 01:08:50;;;;;;;28.80;14.00;;;;;;;11.71;70.93;98566.88;4861234;29;20037;-90
2022/09/29 01:11:19;;;;;;;42.35;16.88;;;;;;;11.71;70.96;98564.94;4846206;29;20049;-89
2022/09/29 01:13:46;;;;;;;44.65;17.55;;;;;;;11.71;70.92;98562.19;4857166;29;20097;-89
2022/09/29 01:16:12;;;;;;;43.78;17.65;;;;;;;11.57;70.91;98553.50;4883875;29;20510;-89
2022/09/29 01:18:38;;;;;;;51.17;18.00;;;;;;;11.48;71.26;98550.84;4877807;29;20035;-89
2022/09/29 01:21:27;;;;;;;37.22;16.35;;;;;;;11.64;71.52;98575.66;4901597;29;20048;-91
2022/09/29 01:24:05;;;;;;;37.67;16.63;;;;;;;11.67;71.43;98574.19;4886111;29;20536;-90
2022/09/29 01:26:55;;;;;;;32.75;14.68;;;;;;;11.71;71.30;98564.13;4886270;29;20071;-89
2022/09/29 01:29:50;;;;;;;29.40;14.13;;;;;;;11.71;71.45;98566.88;4886182;29;20048;-90
2022/09/29 01:32:48;;;;;;;31.08;12.43;;;;;;;11.66;71.70;98569.84;4882733;29;20143;-91
2022/09/29 01:35:44;;;;;;;27.25;12.32;;;;;;;11.59;71.37;98562.19;4880518;29;20044;-88
2022/09/29 01:38:22;;;;;;;24.65;12.02;;;;;;;11.68;71.41;98567.56;4882935;29;20068;-92
2022/09/29 01:41:27;;;;;;;29.08;11.50;;;;;;;11.41;71.32;98553.34;4879364;29;20454;-90
2022/09/29 01:44:02;;;;;;;26.30;12.10;;;;;;;11.48;71.79;98561.78;4886826;29;20048;-90
2022/09/29 01:46:37;;;;;;;26.25;10.88;;;;;;;11.43;71.99;98551.06;4884185;29;20507;-90
2022/09/29 01:49:04;;;;;;;31.42;12.23;;;;;;;11.60;71.80;98582.16;4869886;29;20096;-89
2022/09/29 01:51:53;;;;;;;31.13;13.05;;;;;;;11.62;71.74;98575.19;4902817;29;20071;-89
2022/09/29 01:54:41;;;;;;;25.65;12.25;;;;;;;11.51;71.84;98572.06;4924458;29;20052;-88
2022/09/29 01:57:21;;;;;;;25.65;13.07;;;;;;;11.44;71.79;98565.56;4908784;29;20109;-86
2022/09/29 01:59:57;;;;;;;26.88;11.98;;;;;;;11.50;71.96;98577.91;4922239;29;20095;-90
2022/09/29 02:02:33;;;;;;;31.75;13.13;;;;;;;11.42;71.78;98559.59;4929751;29;20075;-89
2022/09/29 02:05:03;;;;;;;32.72;13.30;;;;;;;11.57;72.04;98586.34;4909968;29;20072;-90
2022/09/29 02:07:41;;;;;;;31.23;12.73;;;;;;;11.37;72.08;98562.56;4909130;29;20113;-89
2022/09/29 02:10:28;;;;;;;24.52;12.63;;;;;;;11.22;72.26;98553.81;4889414;29;20115;-90
2022/09/29 02:12:58;;;;;;;36.72;13.48;;;;;;;11.29;72.20;98558.75;4901672;29;20043;-89
2022/09/29 02:15:31;;;;;;;26.85;12.98;;;;;;;11.21;72.37;98554.97;4884870;29;20048;-90
2022/09/29 02:18:06;;;;;;;29.33;13.15;;;;;;;11.26;72.61;98570.41;4881712;29;20044;-90
2022/09/29 02:20:33;;;;;;;35.15;13.15;;;;;;;11.26;72.51;98571.19;4889338;29;20063;-89
2022/09/29 02:23:00;;;;;;;33.45;13.65;;;;;;;11.45;72.52;98594.50;4900480;29;20032;-90
2022/09/29 02:25:47;;;;;;;27.40;12.20;;;;;;;11.57;72.38;98596.50;4901869;29;20043;-88
2022/09/29 02:28:15;;;;;;;27.42;13.15;;;;;;;11.47;72.25;98578.56;4902279;29;20415;-92
2022/09/29 02:30:41;;;;;;;28.70;13.30;;;;;;;11.53;72.12;98591.69;4919205;29;20526;-86
2022/09/29 02:33:22;;;;;;;27.05;13.40;;;;;;;11.50;72.06;98586.09;4917102;29;20040;-92
2022/09/29 02:35:58;;;;;;;26.88;12.88;;;;;;;11.40;72.13;98570.91;4900309;29;20135;-90
2022/09/29 02:38:32;;;;;;;;;;;;;;;11.63;72.26;98598.69;4918180;29;20036;-90
2022/09/29 02:41:14;;;;;;;23.15;12.48;;;;;;;11.55;72.22;98587.81;4901381;29;20014;-92
2022/09/29 02:43:58;;;;;;;28.58;12.13;;;;;;;11.63;72.41;98590.47;4881863;29;20047;-94
2022/09/29 02:46:46;;;;;;;25.08;12.00;;;;;;;11.56;72.41;98581.22;4890860;29;20091;-88
2022/09/29 02:49:40;;;;;;;25.55;13.18;;;;;;;11.45;72.16;98583.56;4913975;29;20046;-90
2022/09/29 02:52:17;;;;;;;28.77;12.80;;;;;;;11.60;72.18;98596.63;4917819;29;20511;-87
2022/09/29 02:54:43;;;;;;;;;;;;;;;11.57;72.17;98599.25;4904151;29;20044;-89
2022/09/29 02:57:34;;;;;;;23.85;12.80;;;;;;;11.58;72.00;98595.34;4892152;29;20404;-87
2022/09/29 03:00:08;;;;;;;24.13;12.43;;;;;;;11.49;71.92;98596.25;4907452;29;20048;-88
2022/09/29 03:02:36;;;;;;;25.85;12.13;;;;;;;11.36;71.85;98574.66;4926276;29;20506;-89
2022/09/29 03:05:08;;;;;;;23.83;13.35;;;;;;;11.36;72.08;98585.59;4908713;29;20525;-86
2022/09/29 03:07:38;;;;;;;22.80;12.75;;;;;;;11.40;71.90;98576.38;4900853;29;20099;-89
2022/09/29 03:10:06;;;;;;;25.52;12.43;;;;;;;11.44;72.24;98588.25;4930451;29;20509;-87
2022/09/29 03:12:33;;;;;;;30.70;13.70;;;;;;;11.43;72.30;98585.84;4933389;29;20074;-89
2022/09/29 03:14:59;;;;;;;23.30;12.27;;;;;;;11.45;72.50;98603.50;4882980;29;20064;-86
2022/09/29 03:17:25;;;;;;;25.30;13.27;;;;;;;11.44;72.47;98612.88;4873494;29;20072;-90
2022/09/29 03:19:51;;;;;;;23.20;12.73;;;;;;;11.45;72.25;98603.50;4890526;29;20549;-88
2022/09/29 03:22:18;;;;;;;30.45;12.35;;;;;;;11.38;72.49;98603.25;4881031;29;20045;-89
2022/09/29 03:24:44;;;;;;;29.97;13.43;;;;;;;11.33;72.51;98606.22;4887423;29;20044;-87
2022/09/29 03:27:10;;;;;;;30.17;13.07;;;;;;;11.07;72.47;98570.88;4887346;29;20288;-90
2022/09/29 03:29:37;;;;;;;21.88;12.55;;;;;;;11.06;72.21;98558.34;4901072;29;20052;-90
2022/09/29 03:32:07;;;;;;;24.45;12.07;;;;;;;11.45;72.40;98616.41;4875186;29;20048;-88
2022/09/29 03:34:33;;;;;;;23.27;12.23;;;;;;;11.51;72.16;98615.84;4878485;29;20667;-88
2022/09/29 03:37:00;;;;;;;21.45;11.88;;;;;;;11.22;72.23;98574.91;4877831;29;20485;-93
2022/09/29 03:39:27;;;;;;;28.33;12.55;;;;;;;11.50;72.17;98627.16;4865353;29;20085;-89
2022/09/29 03:41:55;;;;;;;23.00;12.43;;;;;;;11.47;72.49;98628.63;4873358;29;20045;-90
2022/09/29 03:44:21;;;;;;;36.30;14.95;;;;;;;11.26;72.28;98600.50;4852561;29;20048;-92
2022/09/29 03:46:47;;;;;;;21.25;12.60;;;;;;;11.42;72.53;98636.22;4856740;29;20148;-88
2022/09/29 03:49:14;;;;;;;22.23;12.70;;;;;;;11.37;72.39;98617.28;4862116;29;20045;-90
2022/09/29 03:51:41;;;;;;;26.23;13.40;;;;;;;11.43;72.17;98621.44;4872315;29;20044;-87
2022/09/29 03:54:08;;;;;;;25.05;13.68;;;;;;;11.23;72.43;98596.47;4888223;29;20064;-90
2022/09/29 03:56:34;;;;;;;31.45;15.50;;;;;;;11.46;72.42;98640.72;4891112;29;20475;-88
2022/09/29 03:59:02;;;;;;;26.42;15.73;;;;;;;11.32;72.37;98612.00;4879770;29;20080;-91
2022/09/29 04:01:28;;;;;;;26.60;15.48;;;;;;;11.11;72.26;98581.94;4870838;29;20491;-91
2022/09/29 04:03:54;;;;;;;24.08;14.18;;;;;;;11.18;72.31;98590.41;4866322;29;20044;-92
2022/09/29 04:06:21;;;;;;;24.55;14.77;;;;;;;11.32;72.23;98610.06;4925217;29;20143;-89
2022/09/29 04:08:48;;;;;;;27.53;14.60;;;;;;;11.39;72.19;98617.75;4892245;29;20041;-90
2022/09/29 04:11:14;;;;;;;22.95;13.38;;;;;;;11.27;71.89;98580.19;4864191;29;20041;-91
2022/09/29 04:13:40;;;;;;;22.98;12.32;;;;;;;11.56;72.15;98636.75;4887277;29;20064;-92
2022/09/29 04:16:07;;;;;;;24.17;11.80;;;;;;;11.43;71.86;98616.75;4896365;29;20458;-89
2022/09/29 04:18:33;;;;;;;22.25;12.60;;;;;;;11.58;72.39;98631.75;4900776;29;20044;-90
2022/09/29 04:21:04;;;;;;;19.10;11.73;;;;;;;11.61;72.27;98647.50;4873986;29;20188;-90
2022/09/29 04:23:30;;;;;;;21.88;11.30;;;;;;;11.28;72.38;98598.19;4902977;29;20291;-91
2022/09/29 04:25:58;;;;;;;30.98;11.38;;;;;;;11.29;72.09;98597.88;4906219;29;20043;-89
2022/09/29 04:28:25;;;;;;;16.80;10.55;;;;;;;11.36;72.03;98605.56;4894802;29;20405;-93
2022/09/29 04:30:51;;;;;;;18.98;10.82;;;;;;;11.53;71.77;98630.03;4884335;29;20056;-91
2022/09/29 04:33:17;;;;;;;16.88;10.15;;;;;;;11.64;71.44;98640.56;4885497;29;20040;-94
2022/09/29 04:35:43;;;;;;;21.52;11.05;;;;;;;11.42;72.34;98601.47;4888711;29;20077;-91
2022/09/29 04:38:09;;;;;;;20.38;11.73;;;;;;;11.45;72.16;98594.50;4890578;29;20048;-92
2022/09/29 04:40:36;;;;;;;33.73;11.97;;;;;;;11.53;72.27;98601.84;4902739;29;20040;-91
2022/09/29 04:43:03;;;;;;;27.38;11.48;;;;;;;11.57;71.93;98607.44;4877874;29;20107;-93
2022/09/29 04:45:29;;;;;;;38.20;11.98;;;;;;;11.52;71.97;98595.59;4906396;29;20716;-92
2022/09/29 04:47:56;;;;;;;33.20;11.93;;;;;;;11.92;72.00;98665.41;4896884;29;20072;-91
2022/09/29 04:50:23;;;;;;;31.33;10.77;;;;;;;11.95;71.88;98665.56;4894100;29;20059;-92
2022/09/29 04:52:49;;;;;;;22.40;11.90;;;;;;;11.47;71.77;98584.03;4890517;29;20296;-91
2022/09/29 04:55:16;;;;;;;19.98;10.32;;;;;;;11.80;71.55;98627.03;4898653;29;20535;-91
2022/09/29 04:57:43;;;;;;;22.35;10.25;;;;;;;11.52;71.12;98570.94;4882444;29;20046;-92
2022/09/29 05:00:11;;;;;;;22.08;11.07;;;;;;;11.88;70.88;98637.91;4896021;29;20047;-90
2022/09/29 05:02:38;;;;;;;27.48;12.00;;;;;;;11.96;70.74;98655.41;4891226;29;20506;-88
2022/09/29 05:05:05;;;;;;;27.08;11.70;;;;;;;11.82;70.94;98643.91;4906559;29;20446;-88
2022/09/29 05:07:34;;;;;;;29.10;10.98;;;;;;;11.97;71.14;98670.69;4901240;29;20067;-89
2022/09/29 05:10:00;;;;;;;26.80;11.20;;;;;;;11.90;71.17;98641.13;4916875;29;20055;-88
2022/09/29 05:12:26;;;;;;;33.57;11.43;;;;;;;11.70;70.93;98620.84;4915652;29;20083;-89
2022/09/29 05:14:52;;;;;;;32.08;11.20;;;;;;;11.71;71.13;98616.94;4888438;29;20048;-89
2022/09/29 05:17:18;;;;;;;24.83;11.68;;;;;;;11.83;70.90;98638.13;4900068;29;20039;-89
2022/09/29 05:19:45;;;;;;;34.45;11.25;;;;;;;11.68;71.05;98619.56;4885935;29;20044;-89
2022/09/29 05:22:11;;;;;;;;;;;;;;;12.08;71.16;98673.81;4911377;29;20051;-87
2022/09/29 05:24:37;;;;;;;33.70;10.70;;;;;;;12.06;71.22;98659.66;4896246;29;19923;-88
2022/09/29 05:27:03;;;;;;;25.02;10.85;;;;;;;12.17;71.27;98669.03;4909639;29;20192;-91
2022/09/29 05:29:29;;;;;;;27.98;10.32;;;;;;;12.04;71.43;98643.56;4916479;29;20164;-89
2022/09/29 05:31:56;;;;;;;27.67;10.45;;;;;;;12.16;71.29;98653.75;4920815;29;20050;-94
2022/09/29 05:34:24;;;;;;;20.13;8.87;;;;;;;12.27;70.60;98660.38;4904006;29;20095;-94
2022/09/29 05:36:52;;;;;;;15.77;8.90;;;;;;;11.90;70.67;98627.44;4895544;29;20295;-93
2022/09/29 05:39:19;;;;;;;17.38;8.13;;;;;;;11.72;71.03;98609.53;4922189;29;20431;-93
2022/09/29 05:41:48;;;;;;;15.35;8.70;;;;;;;11.97;70.85;98659.75;4879187;29;20043;-93
2022/09/29 05:44:15;;;;;;;18.70;8.80;;;;;;;11.94;71.16;98655.75;4902038;29;20051;-96
2022/09/29 05:46:41;;;;;;;;;;;;;;;12.17;70.84;98686.28;4874838;29;20064;-93
2022/09/29 05:49:09;;;;;;;21.17;10.10;;;;;;;11.84;70.92;98637.00;4888952;29;19927;-94
2022/09/29 05:51:36;;;;;;;21.17;9.45;;;;;;;11.93;71.04;98639.66;4898978;29;20040;-94
2022/09/29 05:54:02;;;;;;;24.48;11.10;;;;;;;12.12;70.05;98655.53;4893822;29;20036;-93
2022/09/29 05:56:28;;;;;;;29.77;11.77;;;;;;;12.18;69.91;98665.16;4895918;29;20498;-94
2022/09/29 05:58:54;;;;;;;38.40;11.65;;;;;;;12.03;70.02;98654.88;4888945;29;20040;-91
2022/09/29 06:01:23;;;;;;;33.10;11.80;;;;;;;12.05;69.96;98658.84;4910275;29;20039;-95
2022/09/29 06:03:51;;;;;;;43.58;14.07;;;;;;;12.15;69.97;98677.63;4906905;29;20091;-92
2022/09/29 06:06:27;;;;;;;39.70;13.52;;;;;;;12.28;70.37;98688.59;4920119;29;20038;-91
2022/09/29 06:08:54;;;;;;;40.22;13.48;;;;;;;12.20;70.04;98658.19;4905401;29;20505;-91
2022/09/29 06:13:58;;;;;;;48.05;17.50;;;;;;;12.17;69.80;98690.97;4936267;29;20059;-89
2022/09/29 06:16:26;;;;;;;53.30;16.40;;;;;;;12.19;70.26;98714.16;4918960;29;20058;-89
2022/09/29 06:18:53;;;;;;;52.03;16.55;;;;;;;12.07;70.50;98689.44;4898402;29;20454;-92
2022/09/29 06:21:25;;;;;;;47.08;15.55;;;;;;;12.06;70.83;98693.34;4919238;29;20062;-89
2022/09/29 06:23:53;;;;;;;39.13;16.42;;;;;;;12.13;71.06;98695.53;4874191;23;20090;-89
2022/09/29 06:26:21;;;;;;;44.95;17.80;;;;;;;12.25;70.57;98719.41;4845490;29;20530;-94
2022/09/29 06:29:11;;;;;;;41.78;16.63;;;;;;;12.06;70.86;98681.59;4878850;29;20072;-89
2022/09/29 06:31:38;;;;;;;59.95;16.88;;;;;;;12.10;70.46;98666.06;4874236;29;20033;-87
2022/09/29 06:34:04;;;;;;;59.78;20.02;;;;;;;12.36;70.71;98696.72;4874452;29;20034;-89
2022/09/29 06:39:26;;;;;;;;;;;;;;;12.61;70.72;98715.94;4883791;29;20052;-90
2022/09/29 06:41:55;;;;;;;40.00;15.10;;;;;;;12.50;70.44;98720.28;4868996;29;19931;-87
2022/09/29 06:44:23;;;;;;;38.85;14.65;;;;;;;12.32;70.22;98687.59;4885875;29;20412;-91
2022/09/29 06:46:50;;;;;;;30.40;13.85;;;;;;;12.56;69.82;98719.72;4906226;29;20464;-91
2022/09/29 06:49:16;;;;;;;;;;;;;;;12.77;69.87;98730.56;4873664;29;20041;-91
2022/09/29 06:51:43;;;;;;;30.17;13.88;;;;;;;12.69;69.92;98715.03;4877141;29;19951;-91
2022/09/29 06:54:11;;;;;;;32.90;14.02;;;;;;;12.83;69.36;98710.00;4875535;29;20040;-89
2022/09/29 06:56:38;;;;;;;27.35;13.00;;;;;;;12.87;68.43;98719.16;4863009;29;20052;-87
2022/09/29 06:59:05;;;;;;;24.13;12.70;;;;;;;12.85;68.87;98731.63;4874901;29;20101;-87
2022/09/29 07:01:31;;;;;;;29.15;13.07;;;;;;;12.66;69.30;98693.78;4885949;29;20052;-87
2022/09/29 07:03:59;;;;;;;33.15;13.05;;;;;;;12.93;69.29;98720.53;4897501;29;20053;-88
2022/09/29 07:06:25;;;;;;;26.08;12.52;;;;;;;13.08;68.96;98740.22;4885026;29;20522;-87
2022/09/29 07:08:56;;;;;;;24.47;12.10;;;;;;;13.11;68.10;98745.81;4886300;29;20044;-88
2022/09/29 07:11:22;;;;;;;21.42;11.10;;;;;;;13.01;68.61;98750.94;4881088;29;20285;-90
2022/09/29 07:13:52;;;;;;;21.40;11.43;;;;;;;12.98;68.68;98752.44;4867982;29;20042;-90
2022/09/29 07:16:19;;;;;;;25.40;11.60;;;;;;;12.72;68.30;98706.13;4848195;29;20557;-88
2022/09/29 07:18:45;;;;;;;21.83;12.60;;;;;;;13.02;68.52;98758.03;4883923;29;20041;-89
2022/09/29 07:21:16;;;;;;;21.30;12.43;;;;;;;12.87;68.75;98749.31;4869827;29;20041;-89
2022/09/29 07:23:44;;;;;;;29.83;12.65;;;;;;;12.63;69.41;98703.50;4923288;29;20074;-87
2022/09/29 07:28:57;;;;;;;24.90;12.23;;;;;;;12.53;68.83;98703.94;4899798;29;20112;-89
2022/09/29 07:31:23;;;;;;;32.70;12.95;;;;;;;12.78;68.94;98723.16;4886721;29;20165;-90
2022/09/29 07:33:49;;;;;;;44.50;13.13;;;;;;;13.05;68.63;98749.91;4888295;29;20052;-88
2022/09/29 07:36:18;;;;;;;32.55;12.63;;;;;;;12.85;68.59;98726.16;4878505;29;20512;-87
2022/09/29 07:38:49;;;;;;;31.08;13.93;;;;;;;13.07;69.25;98739.38;4872125;29;20037;-89
2022/09/29 07:41:19;;;;;;;29.48;13.75;;;;;;;13.05;68.96;98749.13;4889107;29;20140;-89
2022/09/29 07:43:45;;;;;;;30.08;13.95;;;;;;;13.18;68.52;98769.94;4870217;29;20084;-87
2022/09/29 07:46:11;;;;;;;29.15;14.25;;;;;;;12.86;69.13;98728.53;4870103;29;20041;-87
2022/09/29 07:48:39;;;;;;;28.83;15.10;;;;;;;13.00;68.93;98746.59;4887841;29;20036;-88
2022/09/29 07:51:11;;;;;;;33.25;13.68;;;;;;;13.22;69.14;98784.56;4869188;29;20072;-88
2022/09/29 07:53:37;;;;;;;28.80;14.48;;;;;;;13.19;69.05;98790.72;4887315;29;20045;-87
2022/09/29 07:56:07;;;;;;;29.27;15.63;;;;;;;13.14;69.19;98775.31;4877685;29;20063;-87
2022/09/29 07:58:34;;;;;;;30.55;14.00;;;;;;;13.12;69.50;98757.56;4902376;29;20045;-87
2022/09/29 08:01:00;;;;;;;32.45;13.88;;;;;;;13.13;68.93;98743.50;4884820;29;20041;-88
2022/09/29 08:03:28;;;;;;;49.88;16.70;;;;;;;13.10;68.62;98733.22;4889339;29;20041;-88
2022/09/29 08:05:56;;;;;;;35.83;16.40;;;;;;;13.56;69.08;98793.47;4904211;29;20148;-87
2022/09/29 08:08:23;;;;;;;28.92;14.57;;;;;;;13.58;68.23;98797.50;4926801;29;20094;-88
2022/09/29 08:10:49;;;;;;;28.48;14.35;;;;;;;13.56;68.42;98788.00;4907512;29;20086;-89
2022/09/29 08:13:16;;;;;;;38.17;14.18;;;;;;;13.38;68.75;98757.25;4925393;29;20478;-88
2022/09/29 08:15:42;;;;;;;29.15;14.07;;;;;;;13.56;68.43;98786.03;4916524;29;20038;-87
2022/09/29 08:18:09;;;;;;;;;;;;;;;13.72;68.76;98810.84;4891984;29;20118;-89
2022/09/29 08:20:36;;;;;;;27.07;14.63;;;;;;;13.70;68.83;98813.13;4926124;29;21296;-88
2022/09/29 08:23:02;;;;;;;37.17;16.35;;;;;;;13.73;69.04;98823.44;4859096;29;1412589;-87
2022/09/29 08:25:28;;;;;;;34.22;17.63;;;;;;;13.26;69.24;98770.97;4908025;29;20064;-89
2022/09/29 08:27:55;;;;;;;50.20;19.70;;;;;;;13.58;69.30;98829.66;4894391;29;20147;-87
2022/09/29 08:30:21;;;;;;;50.70;22.40;;;;;;;13.60;69.24;98805.38;4895606;29;20078;-87
2022/09/29 08:32:56;;;;;;;48.03;21.15;;;;;;;13.70;69.39;98813.13;4893459;29;20524;-87
2022/09/29 08:35:24;;;;;;;62.35;25.38;;;;;;;13.57;69.38;98782.13;4905715;29;20071;-88
2022/09/29 08:37:50;;;;;;;;;;;;;;;14.00;69.85;98813.63;4892320;29;20052;-88
2022/09/29 08:40:17;;;;;;;44.10;18.47;;;;;;;14.06;68.97;98812.25;4881010;29;19919;-88
2022/09/29 08:42:55;;;;;;;50.63;21.58;;;;;;;14.13;68.79;98843.84;4909205;29;20113;-87
2022/09/29 08:45:41;;;;;;;51.00;22.23;;;;;;;13.82;69.43;98826.84;4907658;29;20049;-91
2022/09/29 08:48:21;;;;;;;39.37;19.37;;;;;;;13.94;69.23;98852.69;4907885;28;20019;-87
2022/09/29 08:54:32;;;;;;;44.75;17.52;;;;;;;13.84;69.26;98832.81;4909271;29;20177;-87
2022/09/29 08:57:00;;;;;;;52.17;22.63;;;;;;;13.82;69.74;98826.06;4881835;29;20053;-87
2022/09/29 08:59:29;;;;;;;39.67;18.27;;;;;;;13.82;69.29;98850.78;4883247;29;20077;-88
2022/09/29 09:02:15;;;;;;;42.28;20.08;;;;;;;13.72;69.98;98829.28;4850484;29;20060;-89
2022/09/29 09:04:57;;;;;;;37.15;20.45;;;;;;;14.16;69.88;98845.91;4863391;29;20589;-89
2022/09/29 09:07:44;;;;;;;53.30;24.73;;;;;;;14.17;69.17;98853.00;4857519;29;20075;-90
2022/09/29 09:10:30;;;;;;;54.15;24.38;;;;;;;14.19;69.61;98864.44;4876518;29;20101;-88
2022/09/29 09:13:26;;;;;;;68.60;32.47;;;;;;;14.16;69.90;98860.44;4867988;29;20048;-89
2022/09/29 09:16:02;;;;;;;54.65;22.88;;;;;;;14.09;69.82;98865.72;4868772;29;20049;-91
2022/09/29 09:18:44;;;;;;;45.90;21.95;;;;;;;13.83;69.68;98855.13;4880033;29;20074;-89
2022/09/29 09:21:18;;;;;;;38.38;17.73;;;;;;;13.75;70.21;98842.34;4869142;29;20049;-88
2022/09/29 09:24:11;;;;;;;45.75;18.92;;;;;;;13.70;70.75;98848.03;4863723;29;20535;-90
2022/09/29 09:26:50;;;;;;;47.47;21.33;;;;;;;13.84;70.94;98870.47;4880727;29;20071;-92
2022/09/29 09:29:33;;;;;;;62.22;29.08;;;;;;;13.90;71.04;98877.31;4915971;29;20138;-88
2022/09/29 09:32:05;;;;;;;97.28;44.78;;;;;;;13.77;70.77;98854.56;4883741;29;20045;-88
2022/09/29 09:34:46;;;;;;;123.63;54.90;;;;;;;13.80;71.34;98886.84;4895167;29;20048;-89
2022/09/29 09:37:22;;;;;;;48.83;22.83;;;;;;;13.42;71.46;98834.22;4894475;29;20044;-87
2022/09/29 09:40:23;;;;;;;43.88;20.20;;;;;;;13.74;72.02;98884.66;4898496;29;20119;-87
2022/09/29 09:43:19;;;;;;;41.90;20.60;;;;;;;13.76;71.76;98885.13;4899719;29;20101;-89
2022/09/29 09:46:44;;;;;;;48.13;22.92;;;;;;;13.74;71.93;98884.66;4915717;29;20044;-89
2022/09/29 09:49:19;;;;;;;52.38;25.80;;;;;;;13.57;71.95;98844.50;4879059;29;20128;-89
2022/09/29 09:54:41;;;;;;;36.85;18.17;;;;;;;14.04;71.53;98879.72;4901925;29;20074;-89
2022/09/29 09:57:42;;;;;;;35.65;17.35;;;;;;;14.14;71.19;98894.91;4913683;29;20050;-92
2022/09/29 10:00:30;;;;;;;39.75;18.88;;;;;;;14.16;71.03;98863.19;4898784;29;20052;-89
2022/09/29 10:03:06;;;;;;;48.03;17.70;;;;;;;14.29;70.69;98881.25;4893367;29;20052;-91
2022/09/29 10:05:44;;;;;;;44.45;19.05;;;;;;;14.00;70.46;98835.63;4882408;29;20541;-86
2022/09/29 10:08:25;;;;;;;39.65;17.52;;;;;;;14.17;70.49;98866.72;4899007;29;20056;-87
2022/09/29 10:10:52;;;;;;;37.88;18.50;;;;;;;14.16;70.69;98863.19;4882172;29;20052;-93
2022/09/29 10:13:19;;;;;;;52.35;20.48;;;;;;;14.06;70.53;98845.22;4896976;29;20079;-91
2022/09/29 10:15:55;;;;;;;47.35;22.10;;;;;;;14.35;70.46;98890.06;4898392;29;20525;-89
2022/09/29 10:18:41;;;;;;;53.22;24.42;;;;;;;14.43;70.38;98886.34;4902917;29;20427;-90
2022/09/29 10:24:26;;;;;;;43.17;20.38;;;;;;;14.24;70.46;98883.47;4905068;29;20577;-88
2022/09/29 10:29:49;;;;;;;53.15;21.65;;;;;;;14.23;70.55;98877.13;4911813;29;20128;-89
2022/09/29 10:32:35;;;;;;;69.38;31.42;;;;;;;13.96;70.17;98856.69;4901588;29;20426;-89
2022/09/29 10:35:26;;;;;;;65.38;34.05;;;;;;;13.94;70.73;98863.69;4890250;29;20031;-91
2022/09/29 10:38:07;;;;;;;71.57;36.65;;;;;;;13.95;70.89;98874.34;4928348;29;20043;-89
2022/09/29 10:40:36;;;;;;;56.38;25.63;;;;;;;14.26;70.79;98920.44;4886895;29;20035;-90
2022/09/29 10:43:24;;;;;;;51.13;25.50;;;;;;;14.40;70.54;98933.78;4910060;29;20059;-87
2022/09/29 10:45:52;;;;;;;46.42;22.58;;;;;;;14.34;70.76;98922.25;4904300;29;20052;-89
2022/09/29 10:48:21;;;;;;;47.55;20.98;;;;;;;14.35;70.10;98928.56;4931303;29;20044;-88
2022/09/29 10:50:56;;;;;;;39.80;18.17;;;;;;;14.28;70.40;98933.84;4895397;29;20086;-87
2022/09/29 10:53:42;;;;;;;43.47;20.67;;;;;;;14.08;70.74;98905.38;4884229;29;20048;-87
2022/09/29 10:56:16;;;;;;;;;;;;;;;14.40;70.65;98958.53;4876311;29;20510;-87
2022/09/29 10:59:10;;;;;;;37.95;20.23;;;;;;;14.37;70.60;98959.28;4867564;29;19923;-88
2022/09/29 11:01:46;;;;;;;48.60;20.38;;;;;;;14.37;70.78;98959.28;4867821;29;20120;-87
2022/09/29 11:04:27;;;;;;;35.17;17.98;;;;;;;14.17;70.45;98961.03;4897792;29;20135;-87
2022/09/29 11:07:12;;;;;;;38.97;17.80;;;;;;;14.18;70.78;98962.63;4865554;29;20074;-90
2022/09/29 11:09:46;;;;;;;45.88;22.20;;;;;;;14.33;70.94;98977.59;4945748;29;20204;-88
2022/09/29 11:12:32;;;;;;;42.17;19.73;;;;;;;14.30;71.04;98979.09;4944073;29;20051;-88
2022/09/29 11:15:00;;;;;;;38.63;20.35;;;;;;;13.95;70.93;98939.50;4948681;28;20110;-92
2022/09/29 11:17:40;;;;;;;46.92;25.23;;;;;;;14.02;71.50;98970.75;4930632;28;20564;-90
2022/09/29 11:20:15;;;;;;;74.22;39.38;;;;;;;14.14;71.65;98980.13;4937912;28;20039;-91
2022/09/29 11:23:14;;;;;;;49.30;23.08;;;;;;;14.20;71.78;98987.00;4933916;28;20505;-90
2022/09/29 11:25:55;;;;;;;30.55;15.27;;;;;;;14.25;72.07;98970.28;4903776;28;20048;-89
2022/09/29 11:28:28;;;;;;;29.77;13.40;;;;;;;14.47;70.38;98977.22;4942291;28;20054;-88
2022/09/29 11:30:54;;;;;;;30.85;15.20;;;;;;;14.74;70.65;98982.00;4921161;28;20054;-88
2022/09/29 11:33:46;;;;;;;38.45;17.40;;;;;;;14.88;69.50;98983.56;4954175;28;20101;-87
2022/09/29 11:36:35;;;;;;;32.05;16.02;;;;;;;15.00;69.38;98978.03;4902190;29;20040;-86
2022/09/29 11:39:05;;;;;;;30.17;16.27;;;;;;;15.09;68.28;98984.16;4890874;29;20040;-88
2022/09/29 11:41:41;;;;;;;27.10;14.63;;;;;;;15.11;67.83;98981.06;4863369;29;20172;-89
2022/09/29 11:44:17;;;;;;;27.60;14.43;;;;;;;15.20;68.29;98990.78;4859896;29;20156;-86
2022/09/29 11:47:17;;;;;;;24.77;14.25;;;;;;;15.34;67.66;98993.09;4849303;29;20054;-87
2022/09/29 11:50:30;;;;;;;30.23;15.35;;;;;;;15.28;66.88;98995.31;4831472;29;20050;-86
2022/09/29 11:53:02;;;;;;;29.70;15.10;;;;;;;15.44;67.04;98997.31;4839773;29;20241;-87
2022/09/29 11:55:44;;;;;;;35.60;16.27;;;;;;;15.60;66.62;98998.13;4834101;29;20049;-87
2022/09/29 11:58:30;;;;;;;26.98;13.48;;;;;;;15.51;65.17;98973.47;4846879;29;20041;-86
2022/09/29 12:01:16;;;;;;;37.80;15.45;;;;;;;15.34;66.03;98962.00;4843819;29;20538;-88
2022/09/29 12:04:05;;;;;;;22.90;12.23;;;;;;;15.41;65.03;98989.75;4850940;29;20069;-87
2022/09/29 12:07:12;;;;;;;23.60;12.27;;;;;;;15.67;66.03;99001.09;4842634;29;20136;-86